Time;durP1;ratioP1;P1;durP2;ratioP2;P2;SDS_P1;SDS_P2;PMS_P1;PMS_P2;Temp;Humidity;BMP_temperature;BMP_pressure;BME280_temperature;BME280_humidity;BME280_pressure;Samples;Min_cycle;Max_cycle;Signal;HPM_P1;HPM_P2
2024/03/31 00:00:41;;;;;;;;;;;;;;;3.74;100.00;101006.31;5058251;28;19921;-66
2024/03/31 00:03:07;;;;;;;;;;;;;;;3.73;100.00;101009.91;5069158;28;19925;-67
2024/03/31 00:05:32;;;;;;;;;;;;;;;3.74;100.00;101008.94;5063896;28;20424;-67
2024/03/31 00:07:57;;;;;;;;;;;;;;;3.73;100.00;101010.75;5055081;28;19928;-66
2024/03/31 00:10:23;;;;;;;;;;;;;;;3.75;100.00;101013.25;5061100;28;20399;-68
2024/03/31 00:12:48;;;;;;;;;;;;;;;3.76;100.00;101014.97;5070140;28;19920;-68
2024/03/31 00:15:13;;;;;;;;;;;;;;;3.75;100.00;101013.25;5060967;28;19927;-64
2024/03/31 00:17:39;;;;;;;;;;;;;;;3.77;100.00;101011.38;5063777;28;19946;-66
2024/03/31 00:20:04;;;;;;;;;;;;;;;3.75;100.00;101018.53;5062218;28;19925;-66
2024/03/31 00:22:32;;;;;;;;;;;;;;;3.73;100.00;101015.19;5061896;28;20314;-67
2024/03/31 00:24:58;;;;;;;;;;;;;;;3.68;100.00;101006.78;5060548;28;19924;-66
2024/03/31 00:27:24;;;;;;;;;;;;;;;3.67;100.00;101013.84;5058464;28;19924;-67
2024/03/31 00:29:49;;;;;;;;;;;;;;;3.67;100.00;101015.63;5059926;28;19925;-66
2024/03/31 00:32:14;;;;;;;;;;;;;;;3.67;100.00;101016.47;5059041;28;19962;-68
2024/03/31 00:34:40;;;;;;;;;;;;;;;3.67;100.00;101013.00;5063409;28;19920;-64
2024/03/31 00:37:05;;;;;;;;;;;;;;;3.66;100.00;101013.94;5061821;28;19929;-66
2024/03/31 00:39:31;;;;;;;;;;;;;;;3.64;100.00;101018.50;5066709;28;19921;-65
2024/03/31 00:41:56;;;;;;;;;;;;;;;3.63;100.00;101014.19;5061314;28;19928;-66
2024/03/31 00:44:21;;;;;;;;;;;;;;;3.61;100.00;101016.09;5063685;28;19985;-66
2024/03/31 00:46:47;;;;;;;;;;;;;;;3.62;100.00;101023.03;5055034;28;20396;-65
2024/03/31 00:49:12;;;;;;;;;;;;;;;3.61;100.00;101010.81;5064131;28;20405;-67
2024/03/31 00:51:37;;;;;;;;;;;;;;;3.57;100.00;101019.91;5070399;28;19924;-66
2024/03/31 00:54:03;;;;;;;;;;;;;;;3.54;100.00;101020.13;5067534;28;19924;-67
2024/03/31 00:56:28;;;;;;;;;;;;;;;3.50;100.00;101023.94;5062236;28;19928;-65
2024/03/31 00:58:54;;;;;;;;;;;;;;;3.49;100.00;101014.34;5070947;28;19924;-66
2024/03/31 01:01:19;;;;;;;;;;;;;;;3.49;100.00;101017.00;5062005;28;19924;-65
2024/03/31 01:03:44;;;;;;;;;;;;;;;3.47;100.00;101017.09;5067240;28;19972;-65
2024/03/31 01:06:28;;;;;;;;;;;;;;;3.46;100.00;101027.72;5067351;28;19928;-66
2024/03/31 01:08:53;;;;;;;;;;;;;;;3.43;100.00;101019.09;5064082;28;19971;-65
2024/03/31 01:11:19;;;;;;;;;;;;;;;3.42;100.00;101030.56;5068953;28;19924;-67
2024/03/31 01:13:46;;;;;;;;;;;;;;;3.41;100.00;101031.53;5062239;28;19935;-66
2024/03/31 01:16:11;;;;;;;;;;;;;;;3.42;100.00;101043.72;5071780;28;19931;-66
2024/03/31 01:18:36;;;;;;;;;;;;;;;3.40;100.00;101040.38;5075041;28;19924;-67
2024/03/31 01:21:02;;;;;;;;;;;;;;;3.39;100.00;101040.47;5075392;28;19924;-69
2024/03/31 01:23:30;;;;;;;;;;;;;;;3.37;100.00;101045.84;5068911;28;19974;-70
2024/03/31 01:26:02;;;;;;;;;;;;;;;3.35;100.00;101047.75;5069313;28;19968;-68
2024/03/31 01:28:32;;;;;;;;;;;;;;;3.33;100.00;101049.66;5063522;28;19994;-65
2024/03/31 01:30:57;;;;;;;;;;;;;;;3.33;100.00;101054.94;5065910;28;20349;-65
2024/03/31 01:33:23;;;;;;;;;;;;;;;3.31;100.00;101051.56;5065878;28;19931;-66
2024/03/31 01:35:48;;;;;;;;;;;;;;;3.30;100.00;101054.31;5064997;28;20372;-67
2024/03/31 01:38:13;;;;;;;;;;;;;;;3.27;100.00;101060.63;5065484;28;19924;-66
2024/03/31 01:40:39;;;;;;;;;;;;;;;3.25;100.00;101059.91;5066926;28;20279;-65
2024/03/31 01:43:04;;;;;;;;;;;;;;;3.23;100.00;101059.16;5065571;28;19978;-66
2024/03/31 01:45:29;;;;;;;;;;;;;;;3.22;100.00;101061.91;5072421;28;19932;-66
2024/03/31 01:47:55;;;;;;;;;;;;;;;3.21;100.00;101060.22;5073311;28;20386;-67
2024/03/31 01:50:20;;;;;;;;;;;;;;;3.19;100.00;101062.97;5071162;28;20311;-67
2024/03/31 01:52:45;;;;;;;;;;;;;;;3.20;100.00;101061.19;5072770;28;19925;-66
2024/03/31 01:55:11;;;;;;;;;;;;;;;3.20;100.00;101055.91;5073659;28;19927;-67
2024/03/31 01:57:36;;;;;;;;;;;;;;;3.20;100.00;101062.03;5063122;28;19925;-65
2024/03/31 02:00:02;;;;;;;;;;;;;;;3.20;100.00;101059.41;5072179;28;19925;-66
2024/03/31 02:02:29;;;;;;;;;;;;;;;3.20;100.00;101059.41;5062892;28;19947;-66
2024/03/31 02:04:54;;;;;;;;;;;;;;;3.19;100.00;101062.13;5064253;28;20404;-65
2024/03/31 02:07:19;;;;;;;;;;;;;;;3.20;100.00;101069.91;5058081;28;20415;-65
2024/03/31 02:09:44;;;;;;;;;;;;;;;3.19;100.00;101068.25;5067606;28;19925;-66
2024/03/31 02:12:10;;;;;;;;;;;;;;;3.17;100.00;101074.53;5062774;28;19925;-66
2024/03/31 02:14:35;;;;;;;;;;;;;;;3.16;100.00;101076.31;5063507;28;19982;-66
2024/03/31 02:17:00;;;;;;;;;;;;;;;3.16;100.00;101072.84;5066878;28;19973;-65
2024/03/31 02:19:26;;;;;;;;;;;;;;;3.15;100.00;101074.63;5068122;28;20015;-66
2024/03/31 02:21:51;;;;;;;;;;;;;;;3.16;100.00;101081.59;5063770;28;20347;-65
2024/03/31 02:24:17;;;;;;;;;;;;;;;3.19;100.00;101077.94;5067457;28;20292;-66
2024/03/31 02:26:43;;;;;;;;;;;;;;;3.21;100.00;101078.66;5065090;28;20392;-66
2024/03/31 02:29:10;;;;;;;;;;;;;;;3.20;100.00;101075.19;5062094;28;19924;-65
2024/03/31 02:31:35;;;;;;;;;;;;;;;3.19;100.00;101077.94;5070327;28;19924;-64
2024/03/31 02:34:02;;;;;;;;;;;;;;;3.15;100.00;101074.63;5066547;28;19978;-66
2024/03/31 02:36:27;;;;;;;;;;;;;;;3.11;100.00;101075.81;5059498;28;19994;-65
2024/03/31 02:38:52;;;;;;;;;;;;;;;3.10;100.00;101084.66;5070494;28;20367;-66
2024/03/31 02:41:18;;;;;;;;;;;;;;;3.06;100.00;101072.66;5063857;28;19977;-65
2024/03/31 02:43:43;;;;;;;;;;;;;;;3.06;100.00;101072.66;5059217;28;20351;-67
2024/03/31 02:46:08;;;;;;;;;;;;;;;3.04;100.00;101074.56;5063838;28;19998;-65
2024/03/31 02:48:34;;;;;;;;;;;;;;;3.04;100.00;101085.09;5061705;28;20348;-67
2024/03/31 02:50:59;;;;;;;;;;;;;;;3.01;100.00;101080.03;5070308;28;20011;-65
2024/03/31 02:53:24;;;;;;;;;;;;;;;2.99;100.00;101093.31;5065995;28;20072;-66
2024/03/31 02:55:50;;;;;;;;;;;;;;;2.98;100.00;101090.78;5063466;28;20415;-66
2024/03/31 02:58:15;;;;;;;;;;;;;;;2.95;100.00;101085.72;5058398;28;19928;-65
2024/03/31 03:00:40;;;;;;;;;;;;;;;2.91;100.00;101079.00;5064543;28;19961;-66
2024/03/31 03:03:06;;;;;;;;;;;;;;;2.90;100.00;101083.41;5059940;28;20021;-65
2024/03/31 03:05:31;;;;;;;;;;;;;;;2.91;100.00;101081.63;5066803;28;19953;-65
2024/03/31 03:07:56;;;;;;;;;;;;;;;2.89;100.00;101080.88;5055750;28;19924;-65
2024/03/31 03:10:21;;;;;;;;;;;;;;;2.89;100.00;101075.59;5058566;28;19924;-67
2024/03/31 03:12:47;;;;;;;;;;;;;;;2.91;100.00;101086.88;5061157;28;19978;-67
2024/03/31 03:15:12;;;;;;;;;;;;;;;2.91;100.00;101092.16;5058639;28;20019;-67
2024/03/31 03:17:38;;;;;;;;;;;;;;;2.91;100.00;101089.53;5053217;28;20383;-66
2024/03/31 03:20:03;;;;;;;;;;;;;;;2.90;100.00;101091.31;5065021;28;20272;-69
2024/03/31 03:22:29;;;;;;;;;;;;;;;2.92;100.00;101101.72;5061087;28;20326;-64
2024/03/31 03:24:56;;;;;;;;;;;;;;;2.97;100.00;101112.78;5060777;28;19928;-66
2024/03/31 03:27:21;;;;;;;;;;;;;;;2.99;100.00;101119.59;5061980;28;19978;-67
2024/03/31 03:29:46;;;;;;;;;;;;;;;3.00;100.00;101123.09;5060127;28;19925;-65
2024/03/31 03:32:11;;;;;;;;;;;;;;;3.01;100.00;101127.41;5079965;28;19925;-64
2024/03/31 03:34:37;;;;;;;;;;;;;;;3.02;100.00;101123.81;5064581;28;19924;-66
2024/03/31 03:37:02;;;;;;;;;;;;;;;3.03;100.00;101121.06;5061609;28;19931;-65
2024/03/31 03:39:27;;;;;;;;;;;;;;;3.06;100.00;101112.13;5061769;28;19978;-66
2024/03/31 03:41:53;;;;;;;;;;;;;;;3.13;100.00;101105.50;5062862;28;19921;-66
2024/03/31 03:44:19;;;;;;;;;;;;;;;3.21;100.00;101097.09;5048349;28;19920;-65
2024/03/31 03:46:44;;;;;;;;;;;;;;;3.32;100.00;101110.31;5066514;28;19940;-67
2024/03/31 03:49:10;;;;;;;;;;;;;;;3.39;100.00;101101.88;5060686;28;19975;-65
2024/03/31 03:51:37;;;;;;;;;;;;;;;3.46;100.00;101106.69;5059928;28;19995;-65
2024/03/31 03:54:03;;;;;;;;;;;;;;;3.52;100.00;101107.13;5060713;28;19931;-67
2024/03/31 03:56:28;;;;;;;;;;;;;;;3.56;100.00;101107.75;5064174;28;19936;-67
2024/03/31 03:58:53;;;;;;;;;;;;;;;3.59;100.00;101110.16;5056467;28;19927;-65
2024/03/31 04:01:19;;;;;;;;;;;;;;;3.64;100.00;101111.50;5059627;28;20406;-66
2024/03/31 04:03:44;;;;;;;;;;;;;;;3.68;100.00;101112.13;5062143;28;20410;-66
2024/03/31 04:06:10;;;;;;;;;;;;;;;3.72;100.00;101113.59;5057777;28;19921;-67
2024/03/31 04:08:35;;;;;;;;;;;;;;;3.76;100.00;101120.34;5057280;28;20269;-67
2024/03/31 04:11:01;;;;;;;;;;;;;;;3.79;100.00;101124.56;5062818;28;19994;-67
2024/03/31 04:13:26;;;;;;;;;;;;;;;3.78;100.00;101128.16;5056224;28;19985;-66
2024/03/31 04:16:01;;;;;;;;;;;;;;;3.79;100.00;101125.41;5062912;28;19931;-69
2024/03/31 04:18:26;;;;;;;;;;;;;;;3.79;100.00;101125.41;5068069;28;19981;-67
2024/03/31 04:20:51;;;;;;;;;;;;;;;3.78;100.00;101122.88;5068339;28;20391;-66
2024/03/31 04:23:16;;;;;;;;;;;;;;;3.79;100.00;101128.03;5057662;28;19931;-66
2024/03/31 04:25:44;;;;;;;;;;;;;;;3.83;100.00;101118.94;5062191;28;20027;-67
2024/03/31 04:28:09;;;;;;;;;;;;;;;3.88;100.00;101124.72;5062429;28;20413;-68
2024/03/31 04:30:41;;;;;;;;;;;;;;;3.91;100.00;101128.94;5077537;28;20023;-67
2024/03/31 04:33:07;;;;;;;;;;;;;;;3.95;100.00;101131.22;5060283;28;19928;-66
2024/03/31 04:35:35;;;;;;;;;;;;;;;4.00;100.00;101129.09;5060581;28;19920;-66
2024/03/31 04:38:01;;;;;;;;;;;;;;;4.03;100.00;101133.31;5058902;28;19968;-67
2024/03/31 04:40:26;;;;;;;;;;;;;;;4.06;100.00;101132.25;5057545;28;20089;-66
2024/03/31 04:42:52;;;;;;;;;;;;;;;4.11;100.00;101133.59;5072919;28;20384;-66
2024/03/31 04:45:17;;;;;;;;;;;;;;;4.20;100.00;101134.72;5062955;28;19974;-69
2024/03/31 04:47:42;;;;;;;;;;;;;;;4.27;100.00;101154.41;5062195;28;19924;-67
2024/03/31 04:50:08;;;;;;;;;;;;;;;4.29;100.00;101142.78;5063209;28;19920;-66
2024/03/31 04:52:33;;;;;;;;;;;;;;;4.29;100.00;101144.56;5070466;28;20318;-67
2024/03/31 04:54:58;;;;;;;;;;;;;;;4.35;100.00;101147.63;5055100;28;19931;-67
2024/03/31 04:57:24;;;;;;;;;;;;;;;4.49;100.00;101146.59;5059003;28;19924;-67
2024/03/31 04:59:49;;;;;;;;;;;;;;;4.60;100.00;101154.53;5057726;28;19931;-66
2024/03/31 05:02:14;;;;;;;;;;;;;;;4.73;100.00;101153.63;5058273;28;20406;-66
2024/03/31 05:04:39;;;;;;;;;;;;;;;4.92;100.00;101148.66;5061461;28;20462;-67
2024/03/31 05:07:05;;;;;;;;;;;;;;;5.08;100.00;101145.66;5060985;28;20002;-68
2024/03/31 05:09:33;;;;;;;;;;;;;;;5.28;100.00;101156.38;5063225;28;20459;-67
2024/03/31 05:11:59;;;;;;;;;;;;;;;5.48;100.00;101152.16;5063528;28;19964;-67
2024/03/31 05:14:24;;;;;;;;;;;;;;;5.66;100.00;101149.88;5061418;28;20363;-68
2024/03/31 05:16:49;;;;;;;;;;;;;;;5.76;100.00;101150.00;5063295;28;20376;-66
2024/03/31 05:19:15;;;;;;;;;;;;;;;5.81;100.00;101151.31;5069402;28;19978;-68
2024/03/31 05:21:40;;;;;;;;;;;;;;;5.85;100.00;101159.84;5062098;28;20031;-67
2024/03/31 05:24:06;;;;;;;;;;;;;;;5.85;100.00;101151.91;5060343;28;20016;-66
2024/03/31 05:26:34;;;;;;;;;;;;;;;5.68;100.00;101110.97;5053448;28;20058;-67
2024/03/31 05:29:00;;;;;;;;;;;;;;;5.86;100.00;101145.66;5056762;28;19980;-67
2024/03/31 05:31:25;;;;;;;;;;;;;;;5.85;100.00;101139.53;5060243;28;19924;-68
2024/03/31 05:33:50;;;;;;;;;;;;;;;5.85;100.00;101150.13;5055930;28;19921;-66
2024/03/31 05:36:16;;;;;;;;;;;;;;;5.92;100.00;101144.38;5061045;28;19925;-66
2024/03/31 05:38:41;;;;;;;;;;;;;;;5.98;100.00;101147.34;5065460;28;20279;-66
2024/03/31 05:41:06;;;;;;;;;;;;;;;6.05;100.00;101148.53;5057849;28;20028;-66
2024/03/31 05:43:31;;;;;;;;;;;;;;;6.01;100.00;101149.75;5065266;28;20017;-66
2024/03/31 05:45:57;;;;;;;;;;;;;;;5.99;100.00;101150.84;5062968;28;19962;-68
2024/03/31 05:48:22;;;;;;;;;;;;;;;5.98;100.00;101150.00;5059003;28;19925;-67
2024/03/31 05:50:47;;;;;;;;;;;;;;;5.94;100.00;101150.38;5070305;28;20391;-69
2024/03/31 05:53:13;;;;;;;;;;;;;;;5.93;100.00;101152.16;5062499;28;19935;-67
2024/03/31 05:55:38;;;;;;;;;;;;;;;5.98;100.00;101159.72;5063380;28;19924;-67
2024/03/31 05:58:03;;;;;;;;;;;;;;;6.07;100.00;101158.97;5062920;28;19928;-67
2024/03/31 06:00:29;;;;;;;;;;;;;;;6.17;100.00;101154.66;5064728;28;19920;-67
2024/03/31 06:02:54;;;;;;;;;;;;;;;6.20;100.00;101154.41;5065301;28;19924;-69
2024/03/31 06:05:20;;;;;;;;;;;;;;;6.22;100.00;101148.00;5071281;28;19930;-68
2024/03/31 06:07:49;;;;;;;;;;;;;;;6.32;100.00;101148.09;5072331;28;20387;-68
2024/03/31 06:10:15;;;;;;;;;;;;;;;6.37;100.00;101150.38;5069705;28;19947;-67
2024/03/31 06:12:40;;;;;;;;;;;;;;;6.44;100.00;101144.44;5066063;28;20002;-68
2024/03/31 06:15:06;;;;;;;;;;;;;;;6.56;100.00;101150.53;5070771;28;20011;-68
2024/03/31 06:17:31;;;;;;;;;;;;;;;6.72;100.00;101150.09;5064159;28;19956;-68
2024/03/31 06:19:56;;;;;;;;;;;;;;;6.94;100.00;101154.41;5055511;28;19925;-67
2024/03/31 06:22:22;;;;;;;;;;;;;;;7.12;100.00;101156.34;5063743;28;19920;-70
2024/03/31 06:24:48;;;;;;;;;;;;;;;7.33;100.00;101144.91;5064761;28;20366;-70
2024/03/31 06:27:13;;;;;;;;;;;;;;;7.60;100.00;101146.97;5060294;28;19925;-67
2024/03/31 06:29:39;;;;;;;;;;;;;;;7.68;100.00;101145.31;5061521;28;20391;-69
2024/03/31 06:32:04;;;;;;;;;;;;;;;7.72;100.00;101141.41;5063633;28;20014;-68
2024/03/31 06:34:30;;;;;;;;;;;;;;;7.75;100.00;101151.75;5062198;28;20395;-68
2024/03/31 06:36:55;;;;;;;;;;;;;;;7.67;100.00;101154.25;5067146;28;20367;-68
2024/03/31 06:39:20;;;;;;;;;;;;;;;7.60;100.00;101157.56;5058882;28;19931;-70
2024/03/31 06:41:46;;;;;;;;;;;;;;;7.62;100.00;101164.41;5058102;28;19925;-68
2024/03/31 06:44:11;;;;;;;;;;;;;;;7.67;100.00;101159.53;5066263;28;19925;-68
2024/03/31 06:46:37;;;;;;;;;;;;;;;7.65;100.00;101161.50;5061147;28;20020;-68
2024/03/31 06:49:02;;;;;;;;;;;;;;;7.66;100.00;101157.88;5059423;28;19931;-68
2024/03/31 06:51:27;;;;;;;;;;;;;;;7.64;100.00;101156.31;5062992;28;19967;-68
2024/03/31 06:53:53;;;;;;;;;;;;;;;7.54;100.00;101158.09;5068193;28;19928;-68
2024/03/31 06:56:19;;;;;;;;;;;;;;;7.51;100.00;101155.69;5064113;28;19920;-68
2024/03/31 06:58:44;;;;;;;;;;;;;;;7.45;100.00;101162.38;5063034;28;19925;-67
2024/03/31 07:01:09;;;;;;;;;;;;;;;7.46;100.00;101159.59;5062010;28;20049;-68
2024/03/31 07:03:35;;;;;;;;;;;;;;;7.51;100.00;101164.47;5060916;28;19925;-67
2024/03/31 07:06:02;;;;;;;;;;;;;;;7.53;100.00;101164.38;5056857;28;19925;-68
2024/03/31 07:08:27;;;;;;;;;;;;;;;7.49;100.00;101169.06;5058182;28;19925;-70
2024/03/31 07:10:52;;;;;;;;;;;;;;;7.50;100.00;101173.41;5059778;28;19932;-70
2024/03/31 07:13:18;;;;;;;;;;;;;;;7.55;100.00;101165.91;5064613;28;19966;-67
2024/03/31 07:15:43;;;;;;;;;;;;;;;7.57;100.00;101165.78;5066948;28;19925;-66
2024/03/31 07:18:09;;;;;;;;;;;;;;;7.57;100.00;101161.31;5059296;28;19920;-69
2024/03/31 07:20:35;;;;;;;;;;;;;;;7.57;100.00;101163.97;5069936;28;19921;-69
2024/03/31 07:23:02;;;;;;;;;;;;;;;7.64;100.00;101173.06;5069310;28;19967;-70
2024/03/31 07:25:33;;;;;;;;;;;;;;;7.71;100.00;101171.56;5048361;28;19947;-68
2024/03/31 07:27:58;;;;;;;;;;;;;;;7.78;100.00;101177.16;5057004;28;19931;-70
2024/03/31 07:30:24;;;;;;;;;;;;;;;7.80;100.00;101171.72;5065415;28;19924;-68
2024/03/31 07:32:49;;;;;;;;;;;;;;;7.85;100.00;101172.16;5062764;28;20349;-67
2024/03/31 07:35:15;;;;;;;;;;;;;;;7.89;100.00;101168.28;5059672;28;19979;-67
2024/03/31 07:37:40;;;;;;;;;;;;;;;7.96;100.00;101164.09;5063640;28;19924;-69
2024/03/31 07:40:06;;;;;;;;;;;;;;;8.07;100.00;101166.63;5067013;28;20380;-67
2024/03/31 07:42:32;;;;;;;;;;;;;;;8.18;100.00;101174.47;5062479;28;19920;-69
2024/03/31 07:44:57;;;;;;;;;;;;;;;8.28;100.00;101170.03;5061686;28;19920;-68
2024/03/31 07:47:22;;;;;;;;;;;;;;;8.40;100.00;101167.28;5060159;28;19932;-71
2024/03/31 07:49:48;;;;;;;;;;;;;;;8.52;100.00;101163.50;5059210;28;19925;-70
2024/03/31 07:52:13;;;;;;;;;;;;;;;8.59;100.00;101154.00;5054027;28;20327;-68
2024/03/31 07:54:38;;;;;;;;;;;;;;;8.69;100.00;101165.47;5059879;28;19966;-67
2024/03/31 07:57:04;;;;;;;;;;;;;;;8.79;100.00;101165.47;5061585;28;19924;-67
2024/03/31 07:59:30;;;;;;;;;;;;;;;8.86;100.00;101164.75;5059155;28;20067;-68
2024/03/31 08:01:55;;;;;;;;;;;;;;;8.92;100.00;101168.66;5060334;28;20018;-69
2024/03/31 08:04:21;;;;;;;;;;;;;;;8.95;100.00;101161.22;5064976;28;19925;-67
2024/03/31 08:06:46;;;;;;;;;;;;;;;9.09;100.00;101164.44;5067873;28;19921;-70
2024/03/31 08:09:12;;;;;;;;;;;;;;;9.20;98.11;101166.91;5056333;28;19924;-69
2024/03/31 08:11:37;;;;;;;;;;;;;;;9.33;98.79;101156.81;5060745;28;19968;-68
2024/03/31 08:14:02;;;;;;;;;;;;;;;9.52;99.60;101161.22;5075477;28;20018;-67
2024/03/31 08:16:28;;;;;;;;;;;;;;;9.63;97.30;101164.53;5058872;28;19925;-67
2024/03/31 08:18:53;;;;;;;;;;;;;;;9.71;95.88;101165.63;5061118;28;20051;-67
2024/03/31 08:21:19;;;;;;;;;;;;;;;9.82;96.42;101162.75;5062848;28;19925;-69
2024/03/31 08:23:44;;;;;;;;;;;;;;;10.03;95.45;101163.34;5060652;28;19924;-68
2024/03/31 08:26:11;;;;;;;;;;;;;;;10.28;93.32;101163.66;5067299;28;20455;-67
2024/03/31 08:28:39;;;;;;;;;;;;;;;10.39;93.10;101163.41;5042843;28;19924;-70
2024/03/31 08:31:04;;;;;;;;;;;;;;;10.55;94.08;101161.75;5060098;28;20336;-68
2024/03/31 08:33:30;;;;;;;;;;;;;;;10.82;93.17;101160.81;5058435;28;19967;-67
2024/03/31 08:36:06;;;;;;;;;;;;;;;11.06;89.96;101164.66;5042978;28;19928;-71
2024/03/31 08:38:37;;;;;;;;;;;;;;;11.26;89.67;101162.63;5061196;28;19946;-70
2024/03/31 08:41:07;;;;;;;;;;;;;;;11.46;88.89;101164.09;5060281;28;20398;-69
2024/03/31 08:43:36;;;;;;;;;;;;;;;11.58;87.48;101165.50;5067257;28;19928;-66
2024/03/31 08:46:08;;;;;;;;;;;;;;;11.76;87.44;101168.91;5061269;28;20296;-70
2024/03/31 08:48:36;;;;;;;;;;;;;;;11.92;86.36;101154.00;5061403;28;19974;-67
2024/03/31 08:51:01;;;;;;;;;;;;;;;11.93;83.35;101158.34;5062841;28;19924;-67
2024/03/31 08:53:27;;;;;;;;;;;;;;;12.05;84.80;101152.53;5059062;28;19928;-68
2024/03/31 08:55:52;;;;;;;;;;;;;;;12.14;83.82;101149.88;5061646;28;19944;-67
2024/03/31 08:58:18;;;;;;;;;;;;;;;12.18;83.88;101149.41;5065820;28;20027;-68
2024/03/31 09:00:44;;;;;;;;;;;;;;;12.18;82.84;101145.91;5070242;28;19985;-71
2024/03/31 09:03:10;;;;;;;;;;;;;;;12.21;83.88;101150.91;5067781;28;19964;-68
2024/03/31 09:05:35;;;;;;;;;;;;;;;12.25;84.37;101153.06;5069307;28;19920;-70
2024/03/31 09:08:01;;;;;;;;;;;;;;;12.28;81.70;101152.75;5067858;28;20298;-71
2024/03/31 09:10:27;;;;;;;;;;;;;;;12.19;81.58;101147.56;5062240;28;20391;-70
2024/03/31 09:12:52;;;;;;;;;;;;;;;12.10;81.96;101134.16;5066778;28;19925;-70
2024/03/31 09:15:18;;;;;;;;;;;;;;;11.91;82.83;101134.47;5066567;28;19986;-69
2024/03/31 09:17:43;;;;;;;;;;;;;;;11.87;84.56;101133.13;5063752;28;19985;-68
2024/03/31 09:20:08;;;;;;;;;;;;;;;11.87;83.89;101132.28;5063692;28;19932;-69
2024/03/31 09:22:35;;;;;;;;;;;;;;;11.85;85.35;101140.44;5063148;28;19925;-69
2024/03/31 09:25:01;;;;;;;;;;;;;;;11.76;85.71;101141.38;5071055;28;19924;-69
2024/03/31 09:27:27;;;;;;;;;;;;;;;11.87;86.16;101137.63;5068547;28;19925;-67
2024/03/31 09:29:56;;;;;;;;;;;;;;;11.98;84.57;101130.16;5065544;28;20006;-66
2024/03/31 09:32:22;;;;;;;;;;;;;;;11.97;84.88;101132.97;5064243;28;19946;-69
2024/03/31 09:34:51;;;;;;;;;;;;;;;11.98;85.05;101132.81;5073369;28;19935;-66
2024/03/31 09:37:16;;;;;;;;;;;;;;;12.21;84.51;101134.88;5070964;28;19932;-68
2024/03/31 09:39:43;;;;;;;;;;;;;;;12.49;85.60;101128.25;5072327;28;19925;-70
2024/03/31 09:42:09;;;;;;;;;;;;;;;12.62;81.08;101133.91;5068387;28;19924;-69
2024/03/31 09:44:40;;;;;;;;;;;;;;;12.53;81.96;101134.91;5063216;28;19920;-69
2024/03/31 09:47:18;;;;;;;;;;;;;;;12.54;81.57;101135.75;5067155;28;20269;-68
2024/03/31 09:49:46;;;;;;;;;;;;;;;12.49;82.28;101133.59;5067854;28;19978;-68
2024/03/31 09:52:16;;;;;;;;;;;;;;;12.42;82.04;101135.22;5067007;28;19924;-69
2024/03/31 09:54:42;;;;;;;;;;;;;;;12.39;82.64;101133.72;5057137;28;19925;-72
2024/03/31 09:57:09;;;;;;;;;;;;;;;12.46;82.08;101144.59;5080913;28;19978;-70
2024/03/31 09:59:43;;;;;;;;;;;;;;;12.55;82.08;101142.75;5061639;28;20342;-71
2024/03/31 10:02:14;;;;;;;;;;;;;;;12.64;81.80;101147.94;5079468;28;19924;-69
2024/03/31 10:04:42;;;;;;;;;;;;;;;12.75;80.83;101143.28;5065154;28;19928;-71
2024/03/31 10:07:08;;;;;;;;;;;;;;;12.77;80.36;101135.94;5073344;28;20019;-72
2024/03/31 10:09:35;;;;;;;;;;;;;;;12.73;80.19;101130.09;5037945;28;20428;-69
2024/03/31 10:12:00;;;;;;;;;;;;;;;12.74;80.13;101130.91;5063540;28;19931;-71
2024/03/31 10:14:26;;;;;;;;;;;;;;;12.64;80.58;101126.56;5063447;28;20015;-68
2024/03/31 10:16:58;;;;;;;;;;;;;;;12.60;80.49;101129.75;5071361;28;19925;-69
2024/03/31 10:19:23;;;;;;;;;;;;;;;12.64;81.09;101129.22;5068023;28;19947;-70
2024/03/31 10:21:50;;;;;;;;;;;;;;;12.73;81.08;101123.91;5072622;28;20253;-70
2024/03/31 10:24:18;;;;;;;;;;;;;;;12.77;80.12;101107.38;5074365;28;19935;-69
2024/03/31 10:26:46;;;;;;;;;;;;;;;12.71;80.50;101111.53;5057700;28;19925;-73
2024/03/31 10:29:12;;;;;;;;;;;;;;;12.66;80.72;101113.88;5059295;28;19954;-68
2024/03/31 10:31:37;;;;;;;;;;;;;;;12.67;80.91;101107.53;5059816;28;19925;-72
2024/03/31 10:34:03;;;;;;;;;;;;;;;12.65;80.53;101100.66;5062157;28;19927;-66
2024/03/31 10:36:30;;;;;;;;;;;;;;;12.65;81.33;101100.66;5063181;28;19921;-68
2024/03/31 10:39:02;;;;;;;;;;;;;;;12.75;81.72;101082.66;5063452;28;19925;-68
2024/03/31 10:41:28;;;;;;;;;;;;;;;12.96;82.22;101082.09;5063594;28;19920;-69
2024/03/31 10:43:53;;;;;;;;;;;;;;;13.02;79.77;101084.09;5057814;28;20338;-69
2024/03/31 10:46:18;;;;;;;;;;;;;;;12.72;80.51;101048.22;5057598;28;20015;-69
2024/03/31 10:48:56;;;;;;;;;;;;;;;12.91;81.33;101073.75;5041854;28;19943;-69
2024/03/31 10:51:22;;;;;;;;;;;;;;;12.95;80.82;101064.38;5069009;28;19920;-69
2024/03/31 10:53:48;;;;;;;;;;;;;;;12.95;81.12;101056.38;5070898;28;20415;-71
2024/03/31 10:56:13;;;;;;;;;;;;;;;13.01;81.46;101055.72;5058205;28;19930;-67
2024/03/31 10:58:39;;;;;;;;;;;;;;;13.00;81.00;101046.81;5060427;28;20408;-68
2024/03/31 11:01:04;;;;;;;;;;;;;;;13.08;81.87;101054.00;5066281;28;20078;-67
2024/03/31 11:03:30;;;;;;;;;;;;;;;13.18;80.93;101046.66;5062233;28;20026;-66
2024/03/31 11:05:56;;;;;;;;;;;;;;;13.18;80.80;101043.13;5062603;28;20059;-72
2024/03/31 11:08:21;;;;;;;;;;;;;;;13.22;81.21;101034.59;5058034;28;19924;-69
2024/03/31 11:10:47;;;;;;;;;;;;;;;13.30;80.46;101037.25;5065969;28;19925;-68
2024/03/31 11:13:14;;;;;;;;;;;;;;;13.24;79.93;101027.22;5084829;28;19920;-68
2024/03/31 11:15:40;;;;;;;;;;;;;;;13.25;79.78;101018.19;5077695;28;19920;-68
2024/03/31 11:18:05;;;;;;;;;;;;;;;13.27;79.81;101021.53;5070543;28;20351;-71
2024/03/31 11:20:31;;;;;;;;;;;;;;;13.27;79.66;101016.16;5056229;28;19925;-71
2024/03/31 11:22:57;;;;;;;;;;;;;;;13.31;80.50;101012.16;5072718;28;19920;-73
2024/03/31 11:25:24;;;;;;;;;;;;;;;13.43;80.71;101014.44;5067475;28;19924;-68
2024/03/31 11:27:50;;;;;;;;;;;;;;;13.43;79.44;101009.09;5065042;28;20342;-70
2024/03/31 11:30:21;;;;;;;;;;;;;;;13.41;79.81;101005.75;5066108;28;20043;-68
2024/03/31 11:32:50;;;;;;;;;;;;;;;13.47;79.57;100994.34;5066790;28;19931;-70
2024/03/31 11:35:16;;;;;;;;;;;;;;;13.55;79.12;100995.13;5059624;28;19928;-68
2024/03/31 11:37:41;;;;;;;;;;;;;;;13.51;78.25;100990.31;5061583;28;20380;-69
2024/03/31 11:40:08;;;;;;;;;;;;;;;13.46;79.02;100988.16;5058713;28;20022;-70
2024/03/31 11:42:33;;;;;;;;;;;;;;;13.36;78.76;100984.06;5063967;28;19925;-69
2024/03/31 11:44:59;;;;;;;;;;;;;;;13.35;79.64;100979.72;5069300;28;21006;-67
2024/03/31 11:47:24;;;;;;;;;;;;;;;13.44;79.19;100975.97;5065887;28;19920;-70
2024/03/31 11:49:50;;;;;;;;;;;;;;;13.44;78.40;100967.97;5064895;28;19920;-68
2024/03/31 11:55:07;;;;;;;;;;;;;;;13.35;78.51;100950.28;5060571;28;19931;-71
2024/03/31 11:57:32;;;;;;;;;;;;;;;13.35;79.44;100950.28;5064013;28;19925;-68
2024/03/31 11:59:58;;;;;;;;;;;;;;;13.37;78.59;100948.28;5057417;28;19924;-67
2024/03/31 12:02:26;;;;;;;;;;;;;;;13.44;79.11;100935.84;5067089;28;20298;-68
2024/03/31 12:04:52;;;;;;;;;;;;;;;13.35;79.26;100904.81;5062486;28;19920;-67
2024/03/31 12:07:17;;;;;;;;;;;;;;;13.57;77.96;100931.56;5070138;28;19978;-65
2024/03/31 12:09:44;;;;;;;;;;;;;;;13.63;78.70;100930.88;5058942;28;19932;-66
2024/03/31 12:12:13;;;;;;;;;;;;;;;13.68;77.93;100924.16;5056949;28;19925;-69
2024/03/31 12:14:41;;;;;;;;;;;;;;;13.76;77.99;100924.91;5075182;28;19925;-69
2024/03/31 12:17:06;;;;;;;;;;;;;;;13.78;77.85;100917.53;5068239;28;19970;-71
2024/03/31 12:19:32;;;;;;;;;;;;;;;13.86;78.00;100920.13;5065612;28;19925;-66
2024/03/31 12:21:57;;;;;;;;;;;;;;;13.91;76.98;100916.94;5058800;28;20359;-68
2024/03/31 12:24:23;;;;;;;;;;;;;;;13.97;77.88;100910.03;5063678;28;20466;-68
2024/03/31 12:26:51;;;;;;;;;;;;;;;13.97;76.82;100913.53;5061702;28;19924;-68
2024/03/31 12:29:20;;;;;;;;;;;;;;;13.97;76.61;100905.50;5073720;28;19924;-69
2024/03/31 12:31:45;;;;;;;;;;;;;;;13.96;76.67;100909.19;5065246;28;20033;-70
2024/03/31 12:34:12;;;;;;;;;;;;;;;13.98;77.00;100901.81;5068027;28;19924;-67